Time;durP1;ratioP1;P1;durP2;ratioP2;P2;SDS_P1;SDS_P2;PMS_P1;PMS_P2;Temp;Humidity;BMP_temperature;BMP_pressure;BME280_temperature;BME280_humidity;BME280_pressure;Samples;Min_cycle;Max_cycle;Signal;HPM_P1;HPM_P2
2023/04/10 00:01:34;;;;;;;9.02;6.47;;;4.80;99.90;;;;;;7284992;32;20165;-56
2023/04/10 00:05:36;;;;;;;8.88;6.35;;;4.70;99.90;;;;;;7284371;32;20591;-56
2023/04/10 00:09:38;;;;;;;9.82;7.22;;;4.70;99.90;;;;;;7287655;32;20112;-56
2023/04/10 00:13:40;;;;;;;9.68;7.30;;;4.70;99.90;;;;;;7292169;32;20144;-56
2023/04/10 00:17:41;;;;;;;10.32;6.55;;;4.60;99.90;;;;;;7284916;32;20157;-56
2023/04/10 00:21:43;;;;;;;9.00;6.55;;;4.60;99.90;;;;;;7287389;32;20208;-56
2023/04/10 00:25:46;;;;;;;11.10;7.20;;;4.70;99.90;;;;;;7291249;32;20108;-56
2023/04/10 00:29:48;;;;;;;9.18;6.78;;;4.60;99.90;;;;;;7290393;32;20095;-56
2023/04/10 00:33:50;;;;;;;10.45;6.85;;;4.60;99.90;;;;;;7285215;32;20119;-57
2023/04/10 00:37:53;;;;;;;9.68;6.82;;;4.70;99.90;;;;;;7285444;32;20254;-56
2023/04/10 00:41:56;;;;;;;10.75;7.20;;;4.70;99.90;;;;;;7287756;32;20096;-56
2023/04/10 00:45:58;;;;;;;11.23;7.87;;;4.90;99.90;;;;;;7284278;32;20185;-56
2023/04/10 00:50:00;;;;;;;13.38;8.18;;;5.10;99.90;;;;;;7287667;32;20210;-56
2023/04/10 00:54:03;;;;;;;11.63;8.27;;;5.30;99.90;;;;;;7288946;32;20713;-56
2023/04/10 00:58:05;;;;;;;10.20;7.50;;;5.50;99.90;;;;;;7284580;32;20530;-56
2023/04/10 01:02:07;;;;;;;11.32;8.27;;;5.80;99.90;;;;;;7288999;32;20731;-56
2023/04/10 01:06:33;;;;;;;11.57;8.15;;;5.90;99.90;;;;;;7285181;32;20143;-56
2023/04/10 01:10:50;;;;;;;11.12;7.80;;;6.10;99.90;;;;;;7282390;32;20187;-56
2023/04/10 01:15:05;;;;;;;11.43;8.27;;;6.20;99.90;;;;;;7278714;32;20580;-56
2023/04/10 01:19:37;;;;;;;10.90;8.23;;;6.40;99.90;;;;;;7282205;32;20111;-56
2023/04/10 01:23:54;;;;;;;9.88;7.22;;;6.60;99.90;;;;;;7280650;32;20128;-56
2023/04/10 01:28:18;;;;;;;10.93;8.23;;;6.70;99.90;;;;;;7276066;32;20226;-56
2023/04/10 01:32:22;;;;;;;13.15;8.48;;;6.80;99.90;;;;;;7287186;32;20167;-56
2023/04/10 01:36:27;;;;;;;9.27;7.40;;;6.80;99.90;;;;;;7274936;32;20610;-56
2023/04/10 01:40:31;;;;;;;10.38;8.32;;;6.80;99.90;;;;;;7281149;32;20107;-57
2023/04/10 01:44:35;;;;;;;11.32;7.80;;;6.80;99.90;;;;;;7274263;32;20191;-56
2023/04/10 01:48:37;;;;;;;11.35;8.18;;;6.80;99.90;;;;;;7277918;32;20923;-56
2023/04/10 01:52:39;;;;;;;11.27;7.95;;;6.80;99.90;;;;;;7277660;32;20157;-56
2023/04/10 01:56:42;;;;;;;12.98;8.73;;;6.70;99.90;;;;;;7278460;32;20168;-56
2023/04/10 02:00:43;;;;;;;10.25;7.55;;;6.70;99.90;;;;;;7274332;32;20266;-56
2023/04/10 02:04:50;;;;;;;11.93;7.30;;;6.70;99.90;;;;;;7279127;32;21294;-56
2023/04/10 02:09:09;;;;;;;9.60;6.75;;;6.60;99.90;;;;;;7282640;32;20547;-56
2023/04/10 02:13:15;;;;;;;8.75;6.43;;;6.50;99.90;;;;;;7286300;32;20181;-56
2023/04/10 02:17:22;;;;;;;8.35;6.32;;;6.30;99.90;;;;;;7277557;32;20281;-55
2023/04/10 02:21:25;;;;;;;9.23;6.47;;;6.20;99.90;;;;;;7284264;32;20903;-56
2023/04/10 02:25:31;;;;;;;9.10;7.43;;;5.90;99.90;;;;;;7284010;32;20150;-56
2023/04/10 02:29:32;;;;;;;8.98;6.65;;;5.90;99.90;;;;;;7284685;32;20202;-55
2023/04/10 02:33:34;;;;;;;9.95;6.62;;;5.80;99.90;;;;;;7285523;32;20879;-56
2023/04/10 02:37:36;;;;;;;10.65;7.57;;;5.60;99.90;;;;;;7285229;32;20149;-56
2023/04/10 02:41:37;;;;;;;13.80;7.55;;;5.60;99.90;;;;;;7262753;32;20108;-56
2023/04/10 02:45:40;;;;;;;9.10;6.75;;;5.50;99.90;;;;;;7287526;32;20206;-56
2023/04/10 02:49:43;;;;;;;9.43;7.12;;;5.40;99.90;;;;;;7276867;32;20130;-56
2023/04/10 02:53:44;;;;;;;11.38;7.87;;;5.20;99.90;;;;;;7284395;32;20464;-56
2023/04/10 02:57:46;;;;;;;8.95;6.70;;;5.20;99.90;;;;;;7279907;32;20254;-56
2023/04/10 03:01:50;;;;;;;11.45;7.43;;;5.20;99.90;;;;;;7278169;32;20244;-56
2023/04/10 03:05:53;;;;;;;10.10;6.95;;;5.30;99.90;;;;;;7275028;32;20146;-56
2023/04/10 03:09:54;;;;;;;12.43;7.40;;;5.30;99.90;;;;;;7280484;32;20649;-56
2023/04/10 03:13:59;;;;;;;11.35;7.62;;;5.40;99.90;;;;;;7274003;32;20173;-55
2023/04/10 03:18:02;;;;;;;9.77;7.22;;;5.50;99.90;;;;;;7274237;32;20230;-56
2023/04/10 03:22:03;;;;;;;9.93;6.93;;;5.60;99.90;;;;;;7274081;32;20100;-56
2023/04/10 03:26:05;;;;;;;9.88;6.85;;;5.80;99.90;;;;;;7279210;32;20107;-56
2023/04/10 03:30:07;;;;;;;9.98;6.37;;;6.00;99.90;;;;;;7271447;32;20298;-56
2023/04/10 03:34:09;;;;;;;10.10;6.60;;;6.10;99.90;;;;;;7268880;32;20124;-56
2023/04/10 03:38:11;;;;;;;12.65;6.78;;;6.20;99.90;;;;;;7275110;32;20126;-56
2023/04/10 03:42:12;;;;;;;9.52;6.55;;;6.40;99.90;;;;;;7279946;32;20174;-56
2023/04/10 03:46:15;;;;;;;9.13;6.68;;;6.60;99.90;;;;;;7277029;32;20297;-56
2023/04/10 03:50:17;;;;;;;8.93;6.47;;;6.60;99.90;;;;;;7283117;32;20126;-56
2023/04/10 03:54:19;;;;;;;8.30;6.30;;;6.70;99.90;;;;;;7272376;32;20339;-55
2023/04/10 03:58:20;;;;;;;8.88;6.43;;;6.70;99.90;;;;;;7275872;32;20112;-56
2023/04/10 04:02:22;;;;;;;9.73;6.53;;;6.80;99.90;;;;;;7273617;32;20211;-56
2023/04/10 04:06:24;;;;;;;9.90;7.15;;;6.90;99.90;;;;;;7275442;32;20292;-55
2023/04/10 04:10:26;;;;;;;9.18;6.35;;;7.00;99.90;;;;;;7279488;32;20215;-56
2023/04/10 04:14:28;;;;;;;8.32;6.40;;;7.00;99.90;;;;;;7264997;32;20195;-56
2023/04/10 04:18:29;;;;;;;8.10;6.12;;;7.10;99.90;;;;;;7273324;32;20112;-56
2023/04/10 04:22:31;;;;;;;10.60;5.95;;;7.10;99.90;;;;;;7276857;32;20188;-56
2023/04/10 04:26:33;;;;;;;8.18;6.25;;;7.10;99.90;;;;;;7275181;32;20267;-56
2023/04/10 04:30:34;;;;;;;8.80;5.97;;;7.00;99.90;;;;;;7276897;32;20100;-56
2023/04/10 04:34:36;;;;;;;10.02;5.90;;;7.10;99.90;;;;;;7272227;32;20195;-56
2023/04/10 04:38:38;;;;;;;9.05;5.80;;;7.00;99.90;;;;;;7273464;32;20104;-56
2023/04/10 04:42:40;;;;;;;8.27;6.22;;;7.00;99.90;;;;;;7280137;32;20175;-56
2023/04/10 04:46:41;;;;;;;8.18;6.12;;;6.90;99.90;;;;;;7280883;32;20108;-56
2023/04/10 04:50:45;;;;;;;8.35;5.53;;;7.10;99.90;;;;;;7278458;32;20798;-56
2023/04/10 04:54:47;;;;;;;8.35;6.15;;;7.10;99.90;;;;;;7279427;32;20130;-56
2023/04/10 04:58:48;;;;;;;9.70;6.28;;;7.20;99.90;;;;;;7277800;32;20201;-56
2023/04/10 05:02:50;;;;;;;8.82;6.45;;;7.10;99.90;;;;;;7275275;32;20324;-56
2023/04/10 05:06:52;;;;;;;9.07;6.68;;;7.20;99.90;;;;;;7274593;32;20570;-56
2023/04/10 05:10:54;;;;;;;9.10;6.65;;;7.40;99.90;;;;;;7278798;32;20656;-56
2023/04/10 05:14:56;;;;;;;10.15;6.72;;;7.50;99.90;;;;;;7276444;32;20107;-56
2023/04/10 05:18:57;;;;;;;8.23;6.20;;;7.50;99.90;;;;;;7275963;32;20139;-56
2023/04/10 05:22:59;;;;;;;9.85;7.35;;;7.60;99.90;;;;;;7278959;32;20323;-57
2023/04/10 05:27:01;;;;;;;9.95;7.32;;;7.70;99.90;;;;;;7278435;32;20104;-56
2023/04/10 05:31:03;;;;;;;11.55;6.87;;;7.90;99.90;;;;;;7269696;32;20127;-56
2023/04/10 05:35:06;;;;;;;8.95;6.87;;;8.00;99.90;;;;;;7279795;32;20115;-56
2023/04/10 05:39:08;;;;;;;8.73;6.62;;;8.20;99.90;;;;;;7266436;32;20195;-55
2023/04/10 05:43:09;;;;;;;8.13;6.07;;;8.30;99.90;;;;;;7285992;32;20609;-56
2023/04/10 05:47:11;;;;;;;9.13;6.20;;;8.50;99.90;;;;;;7281129;32;20230;-57
2023/04/10 05:51:13;;;;;;;9.50;6.85;;;8.60;99.90;;;;;;7282447;32;20191;-56
2023/04/10 05:55:14;;;;;;;8.30;6.60;;;8.50;99.90;;;;;;7276883;32;20221;-56
2023/04/10 05:59:16;;;;;;;8.82;6.25;;;8.60;99.90;;;;;;7275385;32;20192;-56
2023/04/10 06:03:18;;;;;;;8.07;6.43;;;8.70;99.90;;;;;;7282177;32;20205;-56
2023/04/10 06:07:20;;;;;;;8.50;6.62;;;8.80;99.90;;;;;;7275688;32;20529;-56
2023/04/10 06:11:22;;;;;;;8.32;6.18;;;8.80;99.90;;;;;;7282846;32;20206;-56
2023/04/10 06:15:24;;;;;;;9.07;6.15;;;8.90;99.90;;;;;;7282649;32;20640;-56
2023/04/10 06:19:25;;;;;;;9.65;6.20;;;9.00;99.90;;;;;;7273481;32;20119;-56
2023/04/10 06:23:27;;;;;;;8.88;6.18;;;9.10;99.90;;;;;;7278875;32;20182;-57
2023/04/10 06:27:29;;;;;;;8.25;5.93;;;9.10;99.90;;;;;;7271439;32;20125;-58
2023/04/10 06:31:34;;;;;;;8.27;6.22;;;9.30;99.90;;;;;;7283970;32;20195;-57
2023/04/10 06:35:36;;;;;;;9.48;6.12;;;9.20;99.90;;;;;;7282418;32;20099;-56
2023/04/10 06:39:38;;;;;;;9.02;5.75;;;9.40;99.90;;;;;;7279768;32;20103;-56
2023/04/10 06:43:40;;;;;;;7.78;6.55;;;9.60;99.90;;;;;;7277504;32;20326;-57
2023/04/10 06:47:42;;;;;;;7.97;6.00;;;9.70;99.90;;;;;;7281334;32;20567;-57
2023/04/10 06:51:44;;;;;;;8.30;6.37;;;9.90;99.90;;;;;;7279185;32;20149;-58
2023/04/10 06:55:46;;;;;;;8.60;6.43;;;10.10;99.90;;;;;;7280949;32;20257;-58
2023/04/10 06:59:48;;;;;;;7.22;5.70;;;10.30;99.90;;;;;;7274074;32;20104;-58
2023/04/10 07:03:50;;;;;;;6.62;5.70;;;10.50;99.90;;;;;;7274179;32;20260;-58
2023/04/10 07:07:52;;;;;;;7.32;5.85;;;10.70;99.90;;;;;;7271259;32;20228;-58
2023/04/10 07:11:54;;;;;;;7.62;5.85;;;10.70;99.90;;;;;;7281983;32;20134;-58
2023/04/10 07:15:55;;;;;;;8.63;5.80;;;10.90;99.90;;;;;;7274470;32;20203;-57
2023/04/10 07:19:57;;;;;;;6.80;5.40;;;11.00;99.90;;;;;;7283885;32;20231;-58
2023/04/10 07:23:59;;;;;;;7.53;6.05;;;11.30;99.90;;;;;;7275641;32;20229;-57
2023/04/10 07:28:01;;;;;;;7.28;5.35;;;11.40;99.90;;;;;;7281739;32;20644;-57
2023/04/10 07:32:03;;;;;;;7.55;5.53;;;11.50;99.90;;;;;;7281053;32;20191;-58
2023/04/10 07:36:05;;;;;;;6.40;5.20;;;11.70;99.90;;;;;;7276167;32;20238;-57
2023/04/10 07:40:08;;;;;;;7.32;5.62;;;11.80;99.90;;;;;;7284418;32;20133;-57
2023/04/10 07:44:10;;;;;;;7.15;5.43;;;11.90;99.90;;;;;;7283038;32;20115;-58
2023/04/10 07:48:12;;;;;;;7.93;5.62;;;11.70;99.90;;;;;;7271482;32;20219;-57
2023/04/10 07:52:13;;;;;;;6.28;5.05;;;11.80;99.90;;;;;;7269436;32;20495;-58
2023/04/10 07:56:16;;;;;;;10.73;5.20;;;12.00;99.90;;;;;;7273600;32;20195;-58
2023/04/10 08:00:18;;;;;;;6.32;4.95;;;12.20;99.90;;;;;;7277982;32;20485;-57
2023/04/10 08:04:20;;;;;;;6.45;5.15;;;12.20;99.90;;;;;;7279312;32;20144;-58
2023/04/10 08:08:22;;;;;;;6.05;5.20;;;12.50;99.90;;;;;;7279353;32;20100;-57
2023/04/10 08:12:24;;;;;;;5.97;4.55;;;12.80;99.90;;;;;;7277118;32;20195;-57
2023/04/10 08:16:27;;;;;;;5.00;4.45;;;13.10;99.90;;;;;;7277128;32;20118;-57
2023/04/10 08:20:30;;;;;;;5.87;4.78;;;13.50;99.90;;;;;;7276213;32;20223;-57
2023/04/10 08:24:31;;;;;;;5.12;4.37;;;13.60;99.90;;;;;;7256603;32;20507;-57
2023/04/10 08:28:33;;;;;;;5.15;4.30;;;14.00;99.90;;;;;;7278965;32;20099;-58
2023/04/10 08:32:35;;;;;;;5.20;4.20;;;14.50;99.90;;;;;;7283253;32;20206;-58
2023/04/10 08:36:37;;;;;;;4.93;4.12;;;14.70;99.60;;;;;;7270944;32;20781;-62
2023/04/10 08:40:39;;;;;;;5.03;4.30;;;15.00;99.10;;;;;;7283132;32;20108;-63
2023/04/10 08:44:40;;;;;;;5.47;4.82;;;15.00;98.00;;;;;;7261721;32;20516;-62
2023/04/10 08:48:51;;;;;;;5.12;3.87;;;15.10;96.50;;;;;;7274105;32;20111;-63
2023/04/10 08:52:54;;;;;;;5.00;4.20;;;15.30;96.60;;;;;;7286808;32;20234;-62
2023/04/10 08:56:57;;;;;;;4.53;3.90;;;15.30;93.70;;;;;;7282213;32;20179;-62
2023/04/10 09:01:00;;;;;;;4.55;3.70;;;15.10;93.90;;;;;;7266025;32;20157;-62
2023/04/10 09:05:04;;;;;;;5.18;3.95;;;15.00;95.30;;;;;;7274972;32;20227;-64
2023/04/10 09:09:06;;;;;;;6.85;3.90;;;15.10;94.30;;;;;;7282080;32;20574;-63
2023/04/10 09:13:07;;;;;;;5.07;3.95;;;15.00;93.70;;;;;;7284386;32;20454;-64
2023/04/10 09:17:12;;;;;;;6.10;3.40;;;14.90;92.60;;;;;;7282530;32;20222;-58
2023/04/10 09:21:19;;;;;;;5.10;4.45;;;15.20;92.70;;;;;;7285322;32;20143;-58
2023/04/10 09:25:35;;;;;;;5.95;3.87;;;15.90;91.50;;;;;;7280202;32;20108;-58
2023/04/10 09:29:39;;;;;;;6.15;3.22;;;16.00;90.20;;;;;;7282785;32;20610;-57
2023/04/10 09:33:40;;;;;;;4.57;3.40;;;16.30;88.60;;;;;;7284837;32;20103;-58
2023/04/10 09:37:44;;;;;;;3.65;3.12;;;16.40;87.30;;;;;;7282209;32;20215;-57
2023/04/10 09:41:48;;;;;;;4.12;3.33;;;16.00;86.50;;;;;;7287820;32;20208;-57
2023/04/10 09:45:52;;;;;;;4.37;3.25;;;16.20;86.50;;;;;;7283609;32;20222;-58
2023/04/10 09:49:59;;;;;;;3.95;3.22;;;16.50;83.60;;;;;;7286835;32;20107;-57
2023/04/10 09:54:02;;;;;;;5.47;3.27;;;16.50;82.40;;;;;;7279105;32;20153;-56
2023/04/10 09:58:05;;;;;;;4.65;3.17;;;16.30;84.80;;;;;;7285548;32;20302;-56
2023/04/10 10:02:07;;;;;;;3.83;3.03;;;16.40;82.10;;;;;;7284203;32;20523;-56
2023/04/10 10:06:10;;;;;;;4.03;2.85;;;16.60;80.00;;;;;;7261800;32;20100;-56
2023/04/10 10:10:13;;;;;;;4.95;3.22;;;16.30;80.50;;;;;;7270228;32;20184;-56
2023/04/10 10:14:18;;;;;;;4.07;3.10;;;16.20;79.90;;;;;;7265139;32;20171;-56
2023/04/10 10:18:41;;;;;;;4.50;2.90;;;16.10;78.80;;;;;;7273590;32;20626;-58
2023/04/10 10:22:45;;;;;;;3.33;2.80;;;16.80;76.00;;;;;;7270974;32;20170;-58
2023/04/10 10:26:47;;;;;;;2.70;2.50;;;17.90;72.30;;;;;;7257283;32;20194;-58
2023/04/10 10:30:50;;;;;;;3.60;2.72;;;18.70;72.10;;;;;;7267383;32;20574;-58
2023/04/10 10:34:52;;;;;;;4.50;2.70;;;18.50;66.90;;;;;;7258273;32;20252;-57
2023/04/10 10:39:22;;;;;;;4.55;2.70;;;18.50;68.80;;;;;;7266336;32;20923;-58
2023/04/10 10:43:35;;;;;;;4.57;3.00;;;18.40;67.00;;;;;;7271229;32;20130;-58
2023/04/10 10:47:42;;;;;;;3.58;2.87;;;18.50;67.50;;;;;;7269441;32;20272;-58
2023/04/10 10:51:48;;;;;;;3.22;2.65;;;18.10;65.80;;;;;;7263846;32;20237;-58
2023/04/10 10:55:50;;;;;;;3.65;2.90;;;17.90;66.70;;;;;;7274367;32;20120;-58
2023/04/10 10:59:51;;;;;;;3.28;2.42;;;18.00;70.70;;;;;;7270527;32;20150;-57
2023/04/10 11:03:53;;;;;;;2.72;2.35;;;18.30;66.90;;;;;;7252038;32;20333;-58
2023/04/10 11:07:58;;;;;;;3.08;2.53;;;18.40;69.10;;;;;;7267194;32;20207;-55
2023/04/10 11:12:00;;;;;;;3.33;3.00;;;17.90;66.90;;;;;;7259995;32;20187;-56
2023/04/10 11:16:03;;;;;;;2.83;2.20;;;17.60;65.40;;;;;;7273878;32;20202;-56
2023/04/10 11:20:06;;;;;;;3.22;2.37;;;17.80;66.30;;;;;;7276273;32;20100;-59
2023/04/10 11:24:08;;;;;;;2.90;2.30;;;18.00;66.00;;;;;;7277054;32;20131;-56
2023/04/10 11:28:44;;;;;;;3.60;2.60;;;18.10;67.20;;;;;;7282060;32;20849;-56
2023/04/10 11:32:48;;;;;;;3.10;2.55;;;17.70;67.10;;;;;;7245885;32;20351;-58
2023/04/10 11:36:52;;;;;;;3.55;2.22;;;17.70;68.10;;;;;;7273872;32;20175;-58
2023/04/10 11:41:03;;;;;;;3.15;2.70;;;17.70;67.30;;;;;;7276463;32;20263;-57
2023/04/10 11:45:24;;;;;;;3.50;2.28;;;17.60;66.70;;;;;;7266204;32;20159;-58
2023/04/10 11:49:30;;;;;;;3.15;2.40;;;17.70;65.90;;;;;;7274620;32;20255;-57
2023/04/10 11:53:31;;;;;;;3.55;2.35;;;17.20;66.70;;;;;;7263632;32;20494;-58
2023/04/10 11:57:34;;;;;;;3.25;2.30;;;16.80;66.20;;;;;;7274047;32;20175;-56
2023/04/10 12:01:36;;;;;;;2.90;2.47;;;17.00;66.40;;;;;;7273814;32;20262;-57
2023/04/10 12:05:45;;;;;;;2.72;2.28;;;17.20;68.50;;;;;;7283687;32;20187;-56
2023/04/10 12:09:57;;;;;;;2.67;2.05;;;17.70;65.30;;;;;;7275350;32;20211;-56
2023/04/10 12:13:59;;;;;;;3.00;2.15;;;17.30;63.70;;;;;;7273098;32;20196;-56
2023/04/10 12:18:01;;;;;;;2.42;2.22;;;17.80;66.70;;;;;;7275308;32;20221;-58
2023/04/10 12:22:03;;;;;;;3.70;2.28;;;18.40;64.50;;;;;;7280570;32;20537;-57
2023/04/10 12:26:11;;;;;;;2.83;2.10;;;18.00;64.00;;;;;;7280141;32;20170;-57
2023/04/10 12:30:13;;;;;;;7.22;2.20;;;17.40;65.30;;;;;;7271235;32;20227;-57
2023/04/10 12:34:17;;;;;;;3.95;2.40;;;17.40;68.40;;;;;;7278557;32;20101;-57
2023/04/10 12:38:42;;;;;;;3.15;2.37;;;17.70;65.40;;;;;;7273098;32;20225;-57
2023/04/10 12:42:44;;;;;;;3.45;2.30;;;17.50;64.50;;;;;;7274300;32;20096;-57
2023/04/10 12:46:46;;;;;;;2.65;2.10;;;17.50;65.40;;;;;;7272042;32;20267;-57
2023/04/10 12:50:48;;;;;;;5.35;2.25;;;17.50;65.20;;;;;;7283538;32;20738;-57
2023/04/10 12:54:50;;;;;;;2.60;1.80;;;17.80;64.90;;;;;;7271342;32;20162;-57
2023/04/10 12:59:05;;;;;;;3.62;2.60;;;17.80;64.30;;;;;;7270162;32;20187;-56
2023/04/10 13:03:07;;;;;;;2.83;2.22;;;17.90;65.20;;;;;;7269877;32;20096;-56
2023/04/10 13:07:09;;;;;;;4.62;2.17;;;17.60;64.30;;;;;;7280211;32;20320;-57
2023/04/10 13:11:11;;;;;;;3.00;2.35;;;17.60;66.10;;;;;;7292497;32;20698;-56
2023/04/10 13:15:12;;;;;;;2.35;1.77;;;17.50;64.90;;;;;;7279025;32;20193;-57
2023/04/10 13:19:14;;;;;;;4.10;2.03;;;17.70;66.20;;;;;;7284227;32;20157;-57
2023/04/10 13:23:16;;;;;;;2.80;1.95;;;17.60;65.00;;;;;;7277317;32;20256;-58
2023/04/10 13:27:18;;;;;;;2.40;1.90;;;17.40;65.20;;;;;;7278593;32;20153;-58
2023/04/10 13:31:20;;;;;;;3.05;1.90;;;17.30;63.70;;;;;;7271478;32;20112;-57
2023/04/10 13:35:21;;;;;;;2.20;1.62;;;17.20;65.60;;;;;;7288876;32;20521;-57
2023/04/10 13:39:25;;;;;;;2.70;1.90;;;17.40;65.00;;;;;;7279439;32;20590;-56
2023/04/10 13:43:26;;;;;;;2.92;1.87;;;17.40;65.00;;;;;;7276920;32;20217;-56
2023/04/10 13:47:28;;;;;;;4.45;1.62;;;17.30;63.60;;;;;;7283767;32;20186;-57
2023/04/10 13:51:30;;;;;;;2.47;1.83;;;17.30;64.30;;;;;;7283535;32;20120;-56
2023/04/10 13:55:32;;;;;;;1.90;1.62;;;17.20;65.70;;;;;;7284775;32;20549;-57
2023/04/10 13:59:33;;;;;;;3.17;1.90;;;17.10;66.80;;;;;;7282849;32;20537;-57
2023/04/10 14:03:35;;;;;;;2.90;1.58;;;17.20;64.90;;;;;;7276458;32;20104;-57
2023/04/10 14:07:37;;;;;;;2.37;1.75;;;17.30;63.80;;;;;;7276606;32;20282;-57
2023/04/10 14:11:39;;;;;;;2.50;2.00;;;17.30;63.60;;;;;;7269829;32;20139;-57
2023/04/10 14:15:40;;;;;;;2.40;1.70;;;17.60;64.80;;;;;;7279786;32;20178;-57
2023/04/10 14:19:42;;;;;;;2.60;1.85;;;17.60;64.90;;;;;;7274227;32;20198;-57
2023/04/10 14:23:44;;;;;;;2.42;1.90;;;17.70;65.80;;;;;;7261454;32;20131;-57
2023/04/10 14:27:46;;;;;;;2.33;1.98;;;17.60;66.00;;;;;;7273252;32;20831;-57
2023/04/10 14:31:50;;;;;;;3.53;1.80;;;17.70;65.60;;;;;;7279846;32;20108;-58
2023/04/10 14:35:58;;;;;;;1.87;1.58;;;17.60;65.70;;;;;;7276026;32;20532;-57
2023/04/10 14:40:05;;;;;;;3.40;1.30;;;17.80;64.90;;;;;;7277087;32;20128;-57
2023/04/10 14:44:07;;;;;;;3.35;1.70;;;18.10;62.30;;;;;;7272154;32;20155;-57
2023/04/10 14:48:11;;;;;;;6.45;1.80;;;18.30;60.40;;;;;;7277695;32;20549;-57
2023/04/10 14:52:13;;;;;;;1.70;1.25;;;18.10;60.30;;;;;;7275660;32;20261;-58
2023/04/10 14:56:15;;;;;;;1.92;1.37;;;17.80;59.80;;;;;;7277149;32;20161;-58
2023/04/10 15:00:17;;;;;;;1.62;1.30;;;17.60;61.60;;;;;;7274549;32;20305;-57
2023/04/10 15:04:19;;;;;;;1.90;1.50;;;17.60;64.00;;;;;;7274650;32;20306;-57
2023/04/10 15:08:21;;;;;;;1.40;1.27;;;17.40;61.50;;;;;;7277086;32;20357;-57
2023/04/10 15:12:23;;;;;;;1.77;1.37;;;17.30;65.00;;;;;;7276030;32;20127;-58
2023/04/10 15:16:25;;;;;;;2.70;1.35;;;17.30;62.50;;;;;;7281309;32;20108;-56
2023/04/10 15:20:27;;;;;;;3.08;1.48;;;17.50;64.50;;;;;;7277263;32;20310;-57
2023/04/10 15:24:29;;;;;;;2.85;1.20;;;17.40;65.70;;;;;;7270876;32;20191;-57
2023/04/10 15:28:37;;;;;;;2.00;1.40;;;17.30;63.90;;;;;;7262682;32;20663;-57
2023/04/10 15:32:39;;;;;;;3.78;1.52;;;17.10;66.00;;;;;;7273250;32;20148;-57
2023/04/10 15:36:42;;;;;;;3.22;1.27;;;17.10;65.30;;;;;;7256303;32;20613;-57
2023/04/10 15:40:44;;;;;;;3.33;1.80;;;17.10;68.00;;;;;;7279155;32;20123;-57
2023/04/10 15:44:46;;;;;;;1.55;1.30;;;17.10;67.20;;;;;;7272995;32;20168;-58
2023/04/10 15:48:50;;;;;;;2.40;1.60;;;17.00;68.90;;;;;;7274873;32;20137;-57
2023/04/10 15:52:51;;;;;;;3.75;1.77;;;16.90;71.10;;;;;;7280634;32;20492;-58
2023/04/10 15:56:53;;;;;;;3.78;1.65;;;16.80;71.60;;;;;;7274598;32;20190;-58
2023/04/10 16:00:55;;;;;;;3.05;1.90;;;16.80;72.80;;;;;;7283170;32;20119;-57
2023/04/10 16:04:56;;;;;;;2.55;1.60;;;16.90;73.60;;;;;;7275865;32;20637;-57
2023/04/10 16:08:58;;;;;;;2.30;1.80;;;16.70;74.30;;;;;;7271085;32;20727;-57
2023/04/10 16:13:03;;;;;;;2.95;2.00;;;16.50;75.00;;;;;;7275697;32;20101;-56
2023/04/10 16:17:04;;;;;;;3.03;1.90;;;16.50;76.40;;;;;;7274630;32;20154;-57
2023/04/10 16:21:15;;;;;;;3.67;1.87;;;16.40;77.50;;;;;;7277508;32;20254;-56
2023/04/10 16:25:17;;;;;;;3.90;2.03;;;16.40;77.50;;;;;;7277612;32;20956;-56
2023/04/10 16:29:22;;;;;;;3.20;2.12;;;16.20;79.60;;;;;;7264637;32;20111;-56
2023/04/10 16:33:25;;;;;;;5.18;1.80;;;16.10;85.10;;;;;;7278690;32;20238;-57
2023/04/10 16:37:26;;;;;;;6.32;2.25;;;15.40;94.90;;;;;;7274678;32;20184;-57
2023/04/10 16:41:28;;;;;;;5.68;1.80;;;14.60;99.90;;;;;;7283839;32;20120;-57
2023/04/10 16:45:30;;;;;;;6.75;2.12;;;14.10;99.90;;;;;;7275016;32;20653;-57
2023/04/10 16:49:32;;;;;;;5.00;2.15;;;13.80;99.90;;;;;;7278454;32;20334;-56
2023/04/10 16:53:34;;;;;;;6.72;2.72;;;13.60;99.90;;;;;;7274791;32;20206;-56
2023/04/10 16:57:36;;;;;;;5.22;2.50;;;13.20;99.90;;;;;;7274001;32;20123;-57
2023/04/10 17:01:38;;;;;;;6.05;2.30;;;13.00;99.90;;;;;;7272471;32;20308;-57
2023/04/10 17:05:40;;;;;;;3.42;2.30;;;13.00;99.90;;;;;;7285254;32;20134;-57
2023/04/10 17:09:42;;;;;;;5.50;2.22;;;13.00;99.90;;;;;;7282962;32;20242;-57
2023/04/10 17:13:45;;;;;;;4.15;2.40;;;13.00;99.90;;;;;;7278317;32;20187;-58
2023/04/10 17:17:47;;;;;;;4.47;2.42;;;13.10;99.90;;;;;;7281499;32;20616;-57
2023/04/10 17:21:51;;;;;;;3.87;2.78;;;13.10;99.90;;;;;;7280888;32;20483;-58
2023/04/10 17:25:52;;;;;;;4.53;2.60;;;13.00;99.90;;;;;;7279593;32;20240;-58
2023/04/10 17:29:54;;;;;;;3.80;2.50;;;13.00;99.90;;;;;;7277816;32;20135;-58
2023/04/10 17:33:57;;;;;;;4.40;2.60;;;12.90;99.90;;;;;;7271349;32;20141;-59
2023/04/10 17:37:59;;;;;;;2.80;2.30;;;12.80;99.90;;;;;;7276836;32;20693;-58
2023/04/10 17:42:00;;;;;;;4.40;2.35;;;13.00;99.90;;;;;;7280539;32;20273;-58
2023/04/10 17:46:02;;;;;;;2.70;2.20;;;13.10;99.90;;;;;;7281058;32;21721;-58
2023/04/10 17:50:05;;;;;;;3.58;2.55;;;13.00;99.90;;;;;;7267382;32;20126;-58
2023/04/10 17:54:07;;;;;;;3.42;2.40;;;13.00;99.90;;;;;;7284665;32;20134;-58
2023/04/10 17:58:08;;;;;;;4.07;2.72;;;12.90;99.90;;;;;;7272659;32;20109;-58
2023/04/10 18:02:10;;;;;;;3.58;2.50;;;12.70;99.90;;;;;;7272520;32;20124;-58
2023/04/10 18:06:12;;;;;;;4.47;2.78;;;12.60;99.90;;;;;;7278344;32;20226;-58
2023/04/10 18:10:14;;;;;;;3.65;2.80;;;12.50;99.90;;;;;;7276737;32;20199;-57
2023/04/10 18:14:16;;;;;;;5.15;3.08;;;12.30;99.90;;;;;;7280769;32;20148;-57
2023/04/10 18:18:18;;;;;;;4.68;3.05;;;12.10;99.90;;;;;;7275006;32;20361;-58
2023/04/10 18:22:19;;;;;;;5.57;3.00;;;11.90;99.90;;;;;;7273323;32;20384;-56
2023/04/10 18:26:21;;;;;;;6.22;3.40;;;11.80;99.90;;;;;;7275553;32;20598;-56
2023/04/10 18:30:23;;;;;;;5.22;3.42;;;11.90;99.90;;;;;;7279290;32;20177;-60
2023/04/10 18:34:25;;;;;;;4.68;3.33;;;11.80;99.90;;;;;;7278133;32;20130;-60
2023/04/10 18:38:27;;;;;;;6.32;3.75;;;11.80;99.90;;;;;;7276994;32;20205;-54
2023/04/10 18:42:28;;;;;;;4.70;3.87;;;11.70;99.90;;;;;;7279678;32;20139;-55
2023/04/10 18:46:31;;;;;;;4.55;4.00;;;11.70;99.90;;;;;;7271369;32;20120;-58
2023/04/10 18:50:36;;;;;;;5.68;3.50;;;11.80;99.90;;;;;;7286471;32;20150;-56
2023/04/10 18:54:38;;;;;;;7.10;2.97;;;11.80;99.90;;;;;;7277867;32;20841;-57
2023/04/10 18:58:40;;;;;;;4.22;2.90;;;11.70;99.90;;;;;;7275596;32;20762;-57
2023/04/10 19:02:42;;;;;;;5.55;2.87;;;11.70;99.90;;;;;;7273128;32;20613;-57
2023/04/10 19:06:45;;;;;;;6.32;3.15;;;11.60;99.90;;;;;;7269119;32;20184;-57
2023/04/10 19:10:47;;;;;;;6.15;3.58;;;11.50;99.90;;;;;;7276028;32;20516;-55
2023/04/10 19:14:48;;;;;;;5.37;3.42;;;11.40;99.90;;;;;;7274197;32;20132;-57
2023/04/10 19:18:52;;;;;;;5.00;3.75;;;11.40;99.90;;;;;;7272436;32;20177;-56
2023/04/10 19:22:54;;;;;;;5.43;3.33;;;11.40;99.90;;;;;;7273660;32;20237;-56
2023/04/10 19:26:56;;;;;;;5.10;3.60;;;11.40;99.90;;;;;;7273270;32;20610;-56
2023/04/10 19:30:58;;;;;;;7.30;4.43;;;11.30;99.90;;;;;;7276523;32;20356;-56
2023/04/10 19:35:00;;;;;;;5.43;3.17;;;11.10;99.90;;;;;;7262595;32;20558;-55
2023/04/10 19:39:02;;;;;;;4.68;2.70;;;10.90;99.90;;;;;;7264201;32;20135;-55
2023/04/10 19:43:04;;;;;;;4.22;2.00;;;10.80;99.90;;;;;;7278154;32;20321;-55
2023/04/10 19:47:05;;;;;;;5.50;1.55;;;10.60;99.90;;;;;;7272755;32;20185;-55
2023/04/10 19:51:07;;;;;;;2.08;1.20;;;10.60;99.90;;;;;;7271847;32;20136;-57
2023/04/10 19:55:09;;;;;;;4.20;1.25;;;10.40;99.90;;;;;;7271982;32;20136;-56
2023/04/10 19:59:11;;;;;;;4.05;1.50;;;10.30;99.90;;;;;;7275447;32;20109;-56
2023/04/10 20:03:14;;;;;;;2.78;1.23;;;10.30;99.90;;;;;;7278497;32;20142;-56
2023/04/10 20:07:16;;;;;;;6.18;1.70;;;10.20;99.90;;;;;;7278732;32;20172;-55
2023/04/10 20:11:18;;;;;;;3.53;1.55;;;10.20;99.90;;;;;;7265836;32;20108;-56
2023/04/10 20:15:20;;;;;;;4.20;1.70;;;10.10;99.90;;;;;;7275666;32;20262;-56
2023/04/10 20:19:22;;;;;;;5.28;1.40;;;10.10;99.90;;;;;;7276192;32;20111;-56
2023/04/10 20:23:23;;;;;;;5.62;1.55;;;10.00;99.90;;;;;;7278331;32;20116;-56
2023/04/10 20:27:25;;;;;;;5.18;1.42;;;10.10;99.90;;;;;;7273471;32;20158;-56
2023/04/10 20:31:27;;;;;;;4.37;1.25;;;10.10;99.90;;;;;;7276987;32;20413;-55
2023/04/10 20:35:29;;;;;;;2.83;1.75;;;10.10;99.90;;;;;;7261873;32;20273;-56
2023/04/10 20:39:32;;;;;;;4.32;1.87;;;10.00;99.90;;;;;;7263807;32;20116;-56
2023/04/10 20:43:33;;;;;;;3.65;1.52;;;10.10;99.90;;;;;;7275277;32;20207;-56
2023/04/10 20:47:35;;;;;;;4.22;1.80;;;10.00;99.90;;;;;;7275090;32;20176;-56
2023/04/10 20:51:37;;;;;;;2.95;1.48;;;10.00;99.90;;;;;;7274765;32;20119;-56
2023/04/10 20:57:16;;;;;;;4.45;1.90;;;10.00;99.90;;;;;;7379916;31;20312;-56
2023/04/10 21:01:18;;;;;;;5.18;1.60;;;9.90;99.90;;;;;;7350636;32;20107;-56
2023/04/10 21:05:19;;;;;;;3.10;1.35;;;9.90;99.90;;;;;;7330049;32;20111;-56
2023/04/10 21:09:21;;;;;;;4.30;1.00;;;9.80;99.90;;;;;;7331232;32;20180;-57